sensor_id;sensor_type;location;lat;lon;timestamp;pressure;altitude;pressure_sealevel;temperature;humidity
40155;BME280;25875;48.202;16.334;2023-02-13T00:01:51;101237.59;;;6.27;61.91
40155;BME280;25875;48.202;16.334;2023-02-13T00:04:19;101226.22;;;6.23;61.96
40155;BME280;25875;48.202;16.334;2023-02-13T00:06:45;101230.59;;;6.24;61.95
40155;BME280;25875;48.202;16.334;2023-02-13T00:09:13;101227.09;;;6.24;61.87
40155;BME280;25875;48.202;16.334;2023-02-13T00:11:41;101222.69;;;6.24;61.95
40155;BME280;25875;48.202;16.334;2023-02-13T00:14:08;101218.31;;;6.23;62.03
40155;BME280;25875;48.202;16.334;2023-02-13T00:16:35;101220.09;;;6.18;62.06
40155;BME280;25875;48.202;16.334;2023-02-13T00:19:01;101224.50;;;6.16;62.12
40155;BME280;25875;48.202;16.334;2023-02-13T00:21:28;101214.88;;;6.14;62.08
40155;BME280;25875;48.202;16.334;2023-02-13T00:23:55;101220.13;;;6.14;62.17
40155;BME280;25875;48.202;16.334;2023-02-13T00:26:21;101221.03;;;6.11;62.00
40155;BME280;25875;48.202;16.334;2023-02-13T00:28:50;101218.41;;;6.09;62.05
40155;BME280;25875;48.202;16.334;2023-02-13T00:31:19;100750.59;;;3.34;61.97
40155;BME280;25875;48.202;16.334;2023-02-13T00:33:46;101224.63;;;6.01;62.18
40155;BME280;25875;48.202;16.334;2023-02-13T00:36:13;101229.00;;;6.00;62.26
40155;BME280;25875;48.202;16.334;2023-02-13T00:38:41;101226.41;;;5.97;62.25
40155;BME280;25875;48.202;16.334;2023-02-13T00:41:09;101138.22;;;5.37;62.17
40155;BME280;25875;48.202;16.334;2023-02-13T00:43:36;101236.94;;;5.94;62.25
40155;BME280;25875;48.202;16.334;2023-02-13T00:46:05;101245.72;;;5.93;62.52
40155;BME280;25875;48.202;16.334;2023-02-13T00:48:32;101241.38;;;5.89;62.15
40155;BME280;25875;48.202;16.334;2023-02-13T00:51:00;101243.16;;;5.83;62.40
40155;BME280;25875;48.202;16.334;2023-02-13T00:53:27;101237.03;;;5.79;62.70
40155;BME280;25875;48.202;16.334;2023-02-13T00:55:54;101201.25;;;5.51;62.53
40155;BME280;25875;48.202;16.334;2023-02-13T00:58:21;101244.06;;;5.75;62.58
40155;BME280;25875;48.202;16.334;2023-02-13T01:00:49;101242.31;;;5.74;62.46
40155;BME280;25875;48.202;16.334;2023-02-13T01:03:19;101237.13;;;5.65;62.48
40155;BME280;25875;48.202;16.334;2023-02-13T01:05:47;101238.84;;;5.68;62.51
40155;BME280;25875;48.202;16.334;2023-02-13T01:08:15;101217.91;;;5.51;62.50
40155;BME280;25875;48.202;16.334;2023-02-13T01:10:44;101240.66;;;5.61;62.46
40155;BME280;25875;48.202;16.334;2023-02-13T01:13:12;101238.03;;;5.58;62.69
40155;BME280;25875;48.202;16.334;2023-02-13T01:15:39;101243.31;;;5.55;62.70
40155;BME280;25875;48.202;16.334;2023-02-13T01:18:06;101235.44;;;5.51;62.88
40155;BME280;25875;48.202;16.334;2023-02-13T01:20:34;101234.56;;;5.47;62.92
40155;BME280;25875;48.202;16.334;2023-02-13T01:23:01;101229.31;;;5.44;62.92
40155;BME280;25875;48.202;16.334;2023-02-13T01:25:29;101235.47;;;5.40;63.04
40155;BME280;25875;48.202;16.334;2023-02-13T01:27:55;101232.84;;;5.41;62.99
40155;BME280;25875;48.202;16.334;2023-02-13T01:30:22;101061.53;;;4.40;62.93
40155;BME280;25875;48.202;16.334;2023-02-13T01:32:49;101237.25;;;5.39;62.99
40155;BME280;25875;48.202;16.334;2023-02-13T01:35:16;101224.97;;;5.40;62.99
40155;BME280;25875;48.202;16.334;2023-02-13T01:37:44;101146.31;;;4.82;62.96
40155;BME280;25875;48.202;16.334;2023-02-13T01:40:12;101233.72;;;5.42;62.91
40155;BME280;25875;48.202;16.334;2023-02-13T01:42:39;101231.97;;;5.41;62.85
40155;BME280;25875;48.202;16.334;2023-02-13T01:45:18;101228.47;;;5.37;63.53
40155;BME280;25875;48.202;16.334;2023-02-13T01:47:50;101225.00;;;5.34;63.09
40155;BME280;25875;48.202;16.334;2023-02-13T01:50:21;101229.38;;;5.33;63.13
40155;BME280;25875;48.202;16.334;2023-02-13T01:52:54;101236.38;;;5.33;63.21
40155;BME280;25875;48.202;16.334;2023-02-13T01:55:23;101230.25;;;5.34;62.82
40155;BME280;25875;48.202;16.334;2023-02-13T01:57:53;101232.88;;;5.32;62.96
40155;BME280;25875;48.202;16.334;2023-02-13T02:00:23;101225.00;;;5.32;63.01
40155;BME280;25875;48.202;16.334;2023-02-13T02:02:53;101218.88;;;5.30;63.12
40155;BME280;25875;48.202;16.334;2023-02-13T02:05:21;101222.38;;;5.29;63.04
40155;BME280;25875;48.202;16.334;2023-02-13T02:07:52;101226.78;;;5.27;63.29
40155;BME280;25875;48.202;16.334;2023-02-13T02:10:20;101219.78;;;5.25;63.11
40155;BME280;25875;48.202;16.334;2023-02-13T02:12:50;101223.28;;;5.24;63.29
40155;BME280;25875;48.202;16.334;2023-02-13T02:15:19;101218.00;;;5.25;63.08
40155;BME280;25875;48.202;16.334;2023-02-13T02:17:46;101220.63;;;5.28;62.84
40155;BME280;25875;48.202;16.334;2023-02-13T02:20:24;101220.63;;;5.28;63.43
40155;BME280;25875;48.202;16.334;2023-02-13T02:23:23;101218.00;;;5.30;63.53
40155;BME280;25875;48.202;16.334;2023-02-13T02:26:28;101201.34;;;5.26;63.73
40155;BME280;25875;48.202;16.334;2023-02-13T02:32:28;101192.59;;;5.27;63.52
40155;BME280;25875;48.202;16.334;2023-02-13T02:35:09;101200.47;;;5.27;63.35
40155;BME280;25875;48.202;16.334;2023-02-13T02:37:46;101198.72;;;5.28;63.13
40155;BME280;25875;48.202;16.334;2023-02-13T02:40:28;101195.22;;;5.29;63.44
40155;BME280;25875;48.202;16.334;2023-02-13T02:43:05;101196.97;;;5.28;63.06
40155;BME280;25875;48.202;16.334;2023-02-13T02:45:39;101191.72;;;5.28;63.06
40155;BME280;25875;48.202;16.334;2023-02-13T02:48:18;101196.09;;;5.29;63.49
40155;BME280;25875;48.202;16.334;2023-02-13T02:51:10;101188.22;;;5.28;63.42
40155;BME280;25875;48.202;16.334;2023-02-13T02:53:46;101202.22;;;5.28;63.00
40155;BME280;25875;48.202;16.334;2023-02-13T02:56:19;101199.59;;;5.28;63.36
40155;BME280;25875;48.202;16.334;2023-02-13T02:58:51;101191.72;;;5.27;63.16
40155;BME280;25875;48.202;16.334;2023-02-13T03:01:37;101194.34;;;5.27;63.09
40155;BME280;25875;48.202;16.334;2023-02-13T03:04:23;101193.50;;;5.20;64.23
40155;BME280;25875;48.202;16.334;2023-02-13T03:07:12;101185.63;;;5.20;63.38
40155;BME280;25875;48.202;16.334;2023-02-13T03:09:43;100831.00;;;3.17;62.92
40155;BME280;25875;48.202;16.334;2023-02-13T03:12:36;101189.97;;;5.26;63.01
40155;BME280;25875;48.202;16.334;2023-02-13T03:15:23;101182.06;;;5.27;62.65
40155;BME280;25875;48.202;16.334;2023-02-13T03:17:51;101184.69;;;5.29;62.71
40155;BME280;25875;48.202;16.334;2023-02-13T03:20:44;101182.94;;;5.28;63.06
40155;BME280;25875;48.202;16.334;2023-02-13T03:23:40;101190.81;;;5.29;62.89
40155;BME280;25875;48.202;16.334;2023-02-13T03:26:25;101175.06;;;5.28;62.91
40155;BME280;25875;48.202;16.334;2023-02-13T03:29:04;101180.31;;;5.29;62.79
40155;BME280;25875;48.202;16.334;2023-02-13T03:31:54;101181.19;;;5.28;62.47
40155;BME280;25875;48.202;16.334;2023-02-13T03:34:29;101180.31;;;5.31;62.49
40155;BME280;25875;48.202;16.334;2023-02-13T03:37:26;101184.69;;;5.32;62.62
40155;BME280;25875;48.202;16.334;2023-02-13T03:40:15;101176.81;;;5.30;62.48
40155;BME280;25875;48.202;16.334;2023-02-13T03:42:47;101175.03;;;5.32;62.40
40155;BME280;25875;48.202;16.334;2023-02-13T03:45:20;101179.41;;;5.35;62.21
40155;BME280;25875;48.202;16.334;2023-02-13T03:48:07;101085.94;;;4.71;62.23
40155;BME280;25875;48.202;16.334;2023-02-13T03:50:56;101180.28;;;5.38;62.05
40155;BME280;25875;48.202;16.334;2023-02-13T03:53:25;101182.03;;;5.38;62.05
40155;BME280;25875;48.202;16.334;2023-02-13T03:55:54;101176.75;;;5.39;61.97
40155;BME280;25875;48.202;16.334;2023-02-13T03:58:42;101181.13;;;5.40;61.96
40155;BME280;25875;48.202;16.334;2023-02-13T04:01:31;101182.00;;;5.39;62.05
40155;BME280;25875;48.202;16.334;2023-02-13T04:04:06;101176.75;;;5.39;62.02
40155;BME280;25875;48.202;16.334;2023-02-13T04:06:37;101179.38;;;5.39;61.92
40155;BME280;25875;48.202;16.334;2023-02-13T04:09:07;101189.03;;;5.40;61.81
40155;BME280;25875;48.202;16.334;2023-02-13T04:11:36;101180.25;;;5.41;61.91
40155;BME280;25875;48.202;16.334;2023-02-13T04:14:07;101173.25;;;5.39;61.91
40155;BME280;25875;48.202;16.334;2023-02-13T04:16:39;101169.75;;;5.41;61.83
40155;BME280;25875;48.202;16.334;2023-02-13T04:19:07;100978.44;;;4.29;61.67
40155;BME280;25875;48.202;16.334;2023-02-13T04:21:37;101165.34;;;5.40;61.78
40155;BME280;25875;48.202;16.334;2023-02-13T04:24:05;101176.75;;;5.39;61.79
40155;BME280;25875;48.202;16.334;2023-02-13T04:26:35;101169.75;;;5.38;61.74
40155;BME280;25875;48.202;16.334;2023-02-13T04:29:03;101169.75;;;5.38;61.81
40155;BME280;25875;48.202;16.334;2023-02-13T04:31:30;101169.75;;;5.38;61.79
40155;BME280;25875;48.202;16.334;2023-02-13T04:33:57;101175.00;;;5.40;61.74
40155;BME280;25875;48.202;16.334;2023-02-13T04:36:24;101165.34;;;5.40;61.67
40155;BME280;25875;48.202;16.334;2023-02-13T04:38:51;101168.88;;;5.41;61.72
40155;BME280;25875;48.202;16.334;2023-02-13T04:41:18;101167.97;;;5.42;61.58
40155;BME280;25875;48.202;16.334;2023-02-13T04:43:46;101159.22;;;5.38;61.61
40155;BME280;25875;48.202;16.334;2023-02-13T04:46:13;101163.59;;;5.41;61.69
40155;BME280;25875;48.202;16.334;2023-02-13T04:48:39;101166.22;;;5.41;61.71
40155;BME280;25875;48.202;16.334;2023-02-13T04:51:06;101168.84;;;5.42;61.48
40155;BME280;25875;48.202;16.334;2023-02-13T04:53:33;101171.47;;;5.44;61.48
40155;BME280;25875;48.202;16.334;2023-02-13T04:56:00;101168.84;;;5.44;61.56
40155;BME280;25875;48.202;16.334;2023-02-13T04:58:26;101166.22;;;5.45;61.56
40155;BME280;25875;48.202;16.334;2023-02-13T05:00:54;101163.56;;;5.45;61.45
40155;BME280;25875;48.202;16.334;2023-02-13T05:03:21;101169.69;;;5.48;61.48
40155;BME280;25875;48.202;16.334;2023-02-13T05:05:48;101167.94;;;5.48;61.40
40155;BME280;25875;48.202;16.334;2023-02-13T05:08:15;101174.09;;;5.47;61.37
40155;BME280;25875;48.202;16.334;2023-02-13T05:10:42;101167.94;;;5.48;61.35
40155;BME280;25875;48.202;16.334;2023-02-13T05:13:09;101172.31;;;5.49;61.35
40155;BME280;25875;48.202;16.334;2023-02-13T05:15:36;101171.44;;;5.52;61.23
40155;BME280;25875;48.202;16.334;2023-02-13T05:18:04;101175.81;;;5.51;61.18
40155;BME280;25875;48.202;16.334;2023-02-13T05:20:31;101172.28;;;5.54;61.10
40155;BME280;25875;48.202;16.334;2023-02-13T05:22:58;101167.91;;;5.53;61.15
40155;BME280;25875;48.202;16.334;2023-02-13T05:25:42;101169.69;;;5.51;61.14
40155;BME280;25875;48.202;16.334;2023-02-13T05:28:09;101177.56;;;5.52;61.15
40155;BME280;25875;48.202;16.334;2023-02-13T05:31:10;101178.44;;;5.53;61.15
40155;BME280;25875;48.202;16.334;2023-02-13T05:33:37;101171.44;;;5.53;61.12
40155;BME280;25875;48.202;16.334;2023-02-13T05:36:04;101174.03;;;5.55;61.00
40155;BME280;25875;48.202;16.334;2023-02-13T05:38:31;100724.53;;;2.88;60.97
40155;BME280;25875;48.202;16.334;2023-02-13T05:40:58;101182.81;;;5.54;61.07
40155;BME280;25875;48.202;16.334;2023-02-13T05:43:25;101181.94;;;5.55;61.17
40155;BME280;25875;48.202;16.334;2023-02-13T05:46:00;101186.34;;;5.53;61.19
40155;BME280;25875;48.202;16.334;2023-02-13T05:48:27;101181.94;;;5.53;61.23
40155;BME280;25875;48.202;16.334;2023-02-13T05:50:55;101184.59;;;5.52;61.33
40155;BME280;25875;48.202;16.334;2023-02-13T05:53:22;101176.69;;;5.52;61.31
40155;BME280;25875;48.202;16.334;2023-02-13T05:55:48;101181.94;;;5.52;61.27
40155;BME280;25875;48.202;16.334;2023-02-13T05:58:16;101184.59;;;5.52;61.25
40155;BME280;25875;48.202;16.334;2023-02-13T06:00:43;101192.47;;;5.52;61.35
40155;BME280;25875;48.202;16.334;2023-02-13T06:03:10;101187.22;;;5.53;61.31
40155;BME280;25875;48.202;16.334;2023-02-13T06:05:37;101185.47;;;5.52;61.40
40155;BME280;25875;48.202;16.334;2023-02-13T06:08:05;101190.72;;;5.54;61.42
40155;BME280;25875;48.202;16.334;2023-02-13T06:10:32;101198.59;;;5.55;61.29
40155;BME280;25875;48.202;16.334;2023-02-13T06:12:59;101186.34;;;5.48;61.24
40155;BME280;25875;48.202;16.334;2023-02-13T06:15:25;100674.00;;;2.53;61.13
40155;BME280;25875;48.202;16.334;2023-02-13T06:17:52;101191.56;;;5.57;61.26
40155;BME280;25875;48.202;16.334;2023-02-13T06:20:19;101200.34;;;5.58;61.34
40155;BME280;25875;48.202;16.334;2023-02-13T06:22:47;101206.47;;;5.57;61.20
40155;BME280;25875;48.202;16.334;2023-02-13T06:25:15;101200.34;;;5.56;61.30
40155;BME280;25875;48.202;16.334;2023-02-13T06:27:42;101127.84;;;5.09;61.24
40155;BME280;25875;48.202;16.334;2023-02-13T06:30:10;101194.19;;;5.57;60.98
40155;BME280;25875;48.202;16.334;2023-02-13T06:32:37;101206.47;;;5.58;61.45
40155;BME280;25875;48.202;16.334;2023-02-13T06:35:04;101202.06;;;5.59;61.35
40155;BME280;25875;48.202;16.334;2023-02-13T06:37:30;101214.34;;;5.60;61.43
40155;BME280;25875;48.202;16.334;2023-02-13T06:39:57;101159.25;;;5.32;61.48
40155;BME280;25875;48.202;16.334;2023-02-13T06:42:25;101202.94;;;5.59;61.42
40155;BME280;25875;48.202;16.334;2023-02-13T06:44:52;101215.22;;;5.62;61.41
40155;BME280;25875;48.202;16.334;2023-02-13T06:47:19;101209.94;;;5.62;61.52
40155;BME280;25875;48.202;16.334;2023-02-13T06:49:46;101212.56;;;5.63;61.47
40155;BME280;25875;48.202;16.334;2023-02-13T06:52:12;101217.84;;;5.63;61.61
40155;BME280;25875;48.202;16.334;2023-02-13T06:54:39;101212.56;;;5.63;61.54
40155;BME280;25875;48.202;16.334;2023-02-13T06:57:06;101217.84;;;5.63;61.63
40155;BME280;25875;48.202;16.334;2023-02-13T06:59:34;101216.09;;;5.62;61.71
40155;BME280;25875;48.202;16.334;2023-02-13T07:02:01;101225.72;;;5.63;61.85
40155;BME280;25875;48.202;16.334;2023-02-13T07:04:27;101224.84;;;5.64;61.87
40155;BME280;25875;48.202;16.334;2023-02-13T07:06:54;101221.31;;;5.67;61.91
40155;BME280;25875;48.202;16.334;2023-02-13T07:09:22;101223.06;;;5.68;61.91
40155;BME280;25875;48.202;16.334;2023-02-13T07:11:49;101227.44;;;5.69;61.96
40155;BME280;25875;48.202;16.334;2023-02-13T07:14:16;101147.03;;;5.28;61.95
40155;BME280;25875;48.202;16.334;2023-02-13T07:16:44;101235.31;;;5.72;62.09
40155;BME280;25875;48.202;16.334;2023-02-13T07:19:11;101229.19;;;5.71;62.21
40155;BME280;25875;48.202;16.334;2023-02-13T07:21:37;101230.94;;;5.72;62.22
40155;BME280;25875;48.202;16.334;2023-02-13T07:24:04;101230.94;;;5.72;62.20
40155;BME280;25875;48.202;16.334;2023-02-13T07:26:31;101231.81;;;5.73;62.22
40155;BME280;25875;48.202;16.334;2023-02-13T07:28:58;101203.84;;;5.55;62.24
40155;BME280;25875;48.202;16.334;2023-02-13T07:31:30;101238.81;;;5.75;62.20
40155;BME280;25875;48.202;16.334;2023-02-13T07:33:58;101239.69;;;5.76;62.33
40155;BME280;25875;48.202;16.334;2023-02-13T07:36:25;101237.06;;;5.76;62.26
40155;BME280;25875;48.202;16.334;2023-02-13T07:38:52;101241.44;;;5.77;62.30
40155;BME280;25875;48.202;16.334;2023-02-13T07:41:19;101175.88;;;5.42;62.21
40155;BME280;25875;48.202;16.334;2023-02-13T07:43:46;101237.91;;;5.80;62.27
40155;BME280;25875;48.202;16.334;2023-02-13T07:46:13;101238.78;;;5.80;62.36
40155;BME280;25875;48.202;16.334;2023-02-13T07:48:39;101233.53;;;5.80;62.43
40155;BME280;25875;48.202;16.334;2023-02-13T07:51:08;101240.53;;;5.81;62.45
40155;BME280;25875;48.202;16.334;2023-02-13T07:53:35;101243.19;;;5.80;62.50
40155;BME280;25875;48.202;16.334;2023-02-13T07:56:05;101243.19;;;5.80;62.71
40155;BME280;25875;48.202;16.334;2023-02-13T07:58:32;101238.78;;;5.82;62.51
40155;BME280;25875;48.202;16.334;2023-02-13T08:01:05;101245.78;;;5.83;62.85
40155;BME280;25875;48.202;16.334;2023-02-13T08:03:31;101245.78;;;5.84;62.57
40155;BME280;25875;48.202;16.334;2023-02-13T08:05:58;101242.25;;;5.85;62.51
40155;BME280;25875;48.202;16.334;2023-02-13T08:08:26;101240.50;;;5.86;62.58
40155;BME280;25875;48.202;16.334;2023-02-13T08:10:53;101241.38;;;5.86;62.67
40155;BME280;25875;48.202;16.334;2023-02-13T08:13:38;101247.53;;;5.87;62.79
40155;BME280;25875;48.202;16.334;2023-02-13T08:16:05;101244.00;;;5.86;62.78
40155;BME280;25875;48.202;16.334;2023-02-13T08:18:32;101236.97;;;5.88;62.82
40155;BME280;25875;48.202;16.334;2023-02-13T08:21:00;101241.38;;;5.89;62.96
40155;BME280;25875;48.202;16.334;2023-02-13T08:23:28;101239.59;;;5.91;62.88
40155;BME280;25875;48.202;16.334;2023-02-13T08:25:58;101243.97;;;5.92;62.91
40155;BME280;25875;48.202;16.334;2023-02-13T08:28:25;101239.59;;;5.93;62.90
40155;BME280;25875;48.202;16.334;2023-02-13T08:30:52;101243.09;;;5.93;62.91
40155;BME280;25875;48.202;16.334;2023-02-13T08:33:19;101249.25;;;5.92;62.91
40155;BME280;25875;48.202;16.334;2023-02-13T08:35:45;101242.22;;;5.93;62.94
40155;BME280;25875;48.202;16.334;2023-02-13T08:38:12;101240.44;;;5.95;62.91
40155;BME280;25875;48.202;16.334;2023-02-13T08:40:41;101243.97;;;5.95;62.97
40155;BME280;25875;48.202;16.334;2023-02-13T08:43:07;101238.69;;;5.97;62.96
40155;BME280;25875;48.202;16.334;2023-02-13T08:45:34;101247.44;;;5.97;62.86
40155;BME280;25875;48.202;16.334;2023-02-13T08:48:01;101249.19;;;6.00;62.99
40155;BME280;25875;48.202;16.334;2023-02-13T08:50:29;101251.81;;;6.01;62.93
40155;BME280;25875;48.202;16.334;2023-02-13T08:52:57;101254.44;;;6.03;62.90
40155;BME280;25875;48.202;16.334;2023-02-13T08:55:24;101246.53;;;6.03;62.89
40155;BME280;25875;48.202;16.334;2023-02-13T08:57:52;101246.53;;;6.04;62.95
40155;BME280;25875;48.202;16.334;2023-02-13T09:00:20;101250.91;;;6.05;62.97
40155;BME280;25875;48.202;16.334;2023-02-13T09:02:47;101249.16;;;6.06;62.92
40155;BME280;25875;48.202;16.334;2023-02-13T09:05:14;101249.13;;;6.07;62.95
40155;BME280;25875;48.202;16.334;2023-02-13T09:07:41;101253.53;;;6.05;62.94
40155;BME280;25875;48.202;16.334;2023-02-13T09:10:08;101243.00;;;6.08;62.89
40155;BME280;25875;48.202;16.334;2023-02-13T09:12:35;101244.75;;;6.09;62.93
40155;BME280;25875;48.202;16.334;2023-02-13T09:15:03;101244.72;;;6.11;62.97
40155;BME280;25875;48.202;16.334;2023-02-13T09:17:30;101243.84;;;6.12;62.94
40155;BME280;25875;48.202;16.334;2023-02-13T09:19:56;101249.09;;;6.14;62.91
40155;BME280;25875;48.202;16.334;2023-02-13T09:22:23;101243.84;;;6.14;62.76
40155;BME280;25875;48.202;16.334;2023-02-13T09:24:50;101249.09;;;6.15;62.94
40155;BME280;25875;48.202;16.334;2023-02-13T09:27:17;101249.06;;;6.20;62.85
40155;BME280;25875;48.202;16.334;2023-02-13T09:29:43;101252.56;;;6.19;62.79
40155;BME280;25875;48.202;16.334;2023-02-13T09:32:11;101253.44;;;6.21;62.60
40155;BME280;25875;48.202;16.334;2023-02-13T09:34:38;101252.56;;;6.22;62.71
40155;BME280;25875;48.202;16.334;2023-02-13T09:37:05;101256.06;;;6.21;62.64
40155;BME280;25875;48.202;16.334;2023-02-13T09:39:32;101265.72;;;6.22;62.72
40155;BME280;25875;48.202;16.334;2023-02-13T09:41:59;101171.34;;;5.67;62.90
40155;BME280;25875;48.202;16.334;2023-02-13T09:44:30;101264.81;;;6.24;62.83
40155;BME280;25875;48.202;16.334;2023-02-13T09:47:06;101272.72;;;6.26;62.79
40155;BME280;25875;48.202;16.334;2023-02-13T09:49:42;101292.03;;;6.23;62.98
40155;BME280;25875;48.202;16.334;2023-02-13T09:52:09;101271.84;;;6.25;62.78
40155;BME280;25875;48.202;16.334;2023-02-13T09:54:36;101267.44;;;6.26;62.80
40155;BME280;25875;48.202;16.334;2023-02-13T09:57:08;101263.94;;;6.25;62.99
40155;BME280;25875;48.202;16.334;2023-02-13T09:59:47;101278.00;;;6.24;62.94
40155;BME280;25875;48.202;16.334;2023-02-13T10:02:31;101270.97;;;6.25;63.19
40155;BME280;25875;48.202;16.334;2023-02-13T10:05:06;101279.78;;;6.18;63.70
40155;BME280;25875;48.202;16.334;2023-02-13T10:07:38;101271.88;;;6.18;63.03
40155;BME280;25875;48.202;16.334;2023-02-13T10:10:14;101274.50;;;6.22;63.15
40155;BME280;25875;48.202;16.334;2023-02-13T10:12:55;101272.72;;;6.24;63.18
40155;BME280;25875;48.202;16.334;2023-02-13T10:15:31;101210.69;;;5.84;62.97
40155;BME280;25875;48.202;16.334;2023-02-13T10:18:03;101274.47;;;6.27;62.97
40155;BME280;25875;48.202;16.334;2023-02-13T10:20:36;101274.44;;;6.28;63.08
40155;BME280;25875;48.202;16.334;2023-02-13T10:23:15;101267.41;;;6.29;63.19
40155;BME280;25875;48.202;16.334;2023-02-13T10:25:47;101270.91;;;6.31;62.87
40155;BME280;25875;48.202;16.334;2023-02-13T10:28:20;101270.88;;;6.34;62.74
40155;BME280;25875;48.202;16.334;2023-02-13T10:30:52;101268.25;;;6.35;62.77
40155;BME280;25875;48.202;16.334;2023-02-13T10:33:24;101242.88;;;6.25;62.72
40155;BME280;25875;48.202;16.334;2023-02-13T10:35:59;101224.47;;;6.21;62.87
40155;BME280;25875;48.202;16.334;2023-02-13T10:38:30;101257.66;;;6.41;62.74
40155;BME280;25875;48.202;16.334;2023-02-13T10:41:15;101242.72;;;6.45;62.92
40155;BME280;25875;48.202;16.334;2023-02-13T10:43:51;101247.97;;;6.45;62.62
40155;BME280;25875;48.202;16.334;2023-02-13T10:46:27;101245.31;;;6.48;62.59
40155;BME280;25875;48.202;16.334;2023-02-13T10:49:22;101237.38;;;6.51;62.64
40155;BME280;25875;48.202;16.334;2023-02-13T10:52:02;101232.13;;;6.50;62.66
40155;BME280;25875;48.202;16.334;2023-02-13T10:54:54;101244.41;;;6.52;62.79
40155;BME280;25875;48.202;16.334;2023-02-13T10:57:27;101238.25;;;6.53;62.56
40155;BME280;25875;48.202;16.334;2023-02-13T11:00:09;101232.09;;;6.56;62.60
40155;BME280;25875;48.202;16.334;2023-02-13T11:02:41;101229.44;;;6.56;62.37
40155;BME280;25875;48.202;16.334;2023-02-13T11:05:14;101230.31;;;6.56;62.62
40155;BME280;25875;48.202;16.334;2023-02-13T11:07:44;101220.66;;;6.58;62.32
40155;BME280;25875;48.202;16.334;2023-02-13T11:10:16;101224.13;;;6.60;62.42
40155;BME280;25875;48.202;16.334;2023-02-13T11:12:43;101224.13;;;6.62;62.18
40155;BME280;25875;48.202;16.334;2023-02-13T11:15:21;101222.34;;;6.64;62.35
40155;BME280;25875;48.202;16.334;2023-02-13T11:17:50;101213.56;;;6.65;62.11
40155;BME280;25875;48.202;16.334;2023-02-13T11:20:38;101220.53;;;6.69;62.37
40155;BME280;25875;48.202;16.334;2023-02-13T11:23:20;101222.31;;;6.67;62.32
40155;BME280;25875;48.202;16.334;2023-02-13T11:25:55;101211.75;;;6.68;62.09
40155;BME280;25875;48.202;16.334;2023-02-13T11:28:23;101215.25;;;6.72;62.02
40155;BME280;25875;48.202;16.334;2023-02-13T11:30:50;101214.34;;;6.73;62.03
40155;BME280;25875;48.202;16.334;2023-02-13T11:33:21;101209.94;;;6.75;62.07
40155;BME280;25875;48.202;16.334;2023-02-13T11:35:48;101205.50;;;6.79;61.84
40155;BME280;25875;48.202;16.334;2023-02-13T11:38:23;101136.53;;;6.38;61.86
40155;BME280;25875;48.202;16.334;2023-02-13T11:40:50;101212.53;;;6.78;62.44
40155;BME280;25875;48.202;16.334;2023-02-13T11:43:24;101201.13;;;6.81;62.09
40155;BME280;25875;48.202;16.334;2023-02-13T11:46:02;101217.81;;;6.81;61.63
40155;BME280;25875;48.202;16.334;2023-02-13T11:48:30;101204.63;;;6.83;61.45
40155;BME280;25875;48.202;16.334;2023-02-13T11:50:57;101077.19;;;6.04;61.50
40155;BME280;25875;48.202;16.334;2023-02-13T11:53:27;101211.63;;;6.85;61.41
40155;BME280;25875;48.202;16.334;2023-02-13T11:56:08;101212.47;;;6.89;61.02
40155;BME280;25875;48.202;16.334;2023-02-13T11:58:35;101206.31;;;6.90;61.12
40155;BME280;25875;48.202;16.334;2023-02-13T12:04:01;101209.78;;;6.92;60.83
40155;BME280;25875;48.202;16.334;2023-02-13T12:06:29;101112.00;;;6.35;60.97
40155;BME280;25875;48.202;16.334;2023-02-13T12:08:57;101207.13;;;6.95;60.88
40155;BME280;25875;48.202;16.334;2023-02-13T12:11:33;101203.63;;;6.94;60.70
40155;BME280;25875;48.202;16.334;2023-02-13T12:14:02;101206.25;;;6.96;60.79
40155;BME280;25875;48.202;16.334;2023-02-13T12:16:30;101201.81;;;6.98;60.68
40155;BME280;25875;48.202;16.334;2023-02-13T12:19:03;101194.81;;;6.97;60.47
40155;BME280;25875;48.202;16.334;2023-02-13T12:21:47;101194.78;;;6.98;60.28
40155;BME280;25875;48.202;16.334;2023-02-13T12:24:34;101189.53;;;6.97;60.20
40155;BME280;25875;48.202;16.334;2023-02-13T12:27:12;101182.53;;;6.94;60.25
40155;BME280;25875;48.202;16.334;2023-02-13T12:30:06;101181.63;;;6.95;60.27
40155;BME280;25875;48.202;16.334;2023-02-13T12:32:47;101171.13;;;6.92;60.62
40155;BME280;25875;48.202;16.334;2023-02-13T12:35:27;101177.28;;;6.93;60.19
40155;BME280;25875;48.202;16.334;2023-02-13T12:37:59;101167.59;;;6.95;60.37
40155;BME280;25875;48.202;16.334;2023-02-13T12:40:39;101172.00;;;6.94;59.97
40155;BME280;25875;48.202;16.334;2023-02-13T12:43:30;101175.50;;;6.93;59.95
40155;BME280;25875;48.202;16.334;2023-02-13T12:46:02;101176.38;;;6.94;60.48
40155;BME280;25875;48.202;16.334;2023-02-13T12:48:39;101175.50;;;6.95;59.92
40155;BME280;25875;48.202;16.334;2023-02-13T12:51:19;101174.59;;;6.96;60.06
40155;BME280;25875;48.202;16.334;2023-02-13T12:54:00;101171.06;;;6.97;60.16
40155;BME280;25875;48.202;16.334;2023-02-13T12:56:48;101163.13;;;7.01;60.22
40155;BME280;25875;48.202;16.334;2023-02-13T12:59:24;101163.06;;;7.04;60.24
40155;BME280;25875;48.202;16.334;2023-02-13T13:02:28;101160.41;;;7.07;59.81
40155;BME280;25875;48.202;16.334;2023-02-13T13:05:13;101158.63;;;7.08;60.17
40155;BME280;25875;48.202;16.334;2023-02-13T13:07:53;101152.44;;;7.12;59.89
40155;BME280;25875;48.202;16.334;2023-02-13T13:10:30;101163.81;;;7.16;59.83
40155;BME280;25875;48.202;16.334;2023-02-13T13:13:09;101166.41;;;7.19;59.47
40155;BME280;25875;48.202;16.334;2023-02-13T13:15:43;101219.09;;;7.25;59.48
40155;BME280;25875;48.202;16.334;2023-02-13T13:18:26;101155.69;;;7.32;58.48
40155;BME280;25875;48.202;16.334;2023-02-13T13:21:02;101161.75;;;7.42;59.03